Time,TemperatureF,DewpointF,PressureIn,WindDirection,WindDirectionDegrees,WindSpeedMPH,WindSpeedGustMPH,Humidity,HourlyPrecipIn,Conditions,Clouds,dailyrainin,SoftwareType,DateUTC
2013-01-12 00:05:00,48.9,22.0,30.05,NW,316,1.0,7.0,35,0.00,,,0.00,weatherlink.com 1.10,2013-01-12 08:05:00,
2013-01-12 00:20:00,48.5,23.0,30.05,NW,321,6.0,8.0,37,0.00,,,0.00,weatherlink.com 1.10,2013-01-12 08:20:00,
2013-01-12 00:35:00,48.4,23.0,30.05,West,264,2.0,9.0,37,0.00,,,0.00,weatherlink.com 1.10,2013-01-12 08:35:00,
2013-01-12 00:50:00,48.6,23.0,30.04,WNW,285,2.0,9.0,37,0.00,,,0.00,weatherlink.com 1.10,2013-01-12 08:50:00,
2013-01-12 01:05:00,48.8,22.0,30.04,WNW,299,4.0,8.0,35,0.00,,,0.00,weatherlink.com 1.10,2013-01-12 09:05:00,
2013-01-12 01:35:00,48.6,24.0,30.05,WNW,302,3.0,5.0,38,0.00,,,0.00,weatherlink.com 1.10,2013-01-12 09:35:00,
2013-01-12 01:50:00,48.6,24.0,30.05,NW,325,4.0,7.0,38,0.00,,,0.00,weatherlink.com 1.10,2013-01-12 09:50:00,
2013-01-12 02:05:00,48.9,24.0,30.05,NW,308,5.0,12.0,38,0.00,,,0.00,weatherlink.com 1.10,2013-01-12 10:05:00,
2013-01-12 02:20:00,48.8,25.0,30.05,WNW,297,4.0,12.0,39,0.00,,,0.00,weatherlink.com 1.10,2013-01-12 10:20:00,
2013-01-12 02:35:00,48.3,25.0,30.05,NE,45,2.0,7.0,40,0.00,,,0.00,weatherlink.com 1.10,2013-01-12 10:35:00,
2013-01-12 02:50:00,47.8,24.0,30.05,West,272,1.0,5.0,40,0.00,,,0.00,weatherlink.com 1.10,2013-01-12 10:50:00,
2013-01-12 03:05:00,47.4,24.0,30.05,NW,304,1.0,6.0,40,0.00,,,0.00,weatherlink.com 1.10,2013-01-12 11:05:00,
2013-01-12 03:20:00,46.8,24.0,30.05,NW,304,1.0,7.0,41,0.00,,,0.00,weatherlink.com 1.10,2013-01-12 11:20:00,
2013-01-12 03:35:00,46.0,25.0,30.04,NW,312,0.0,3.0,44,0.00,,,0.00,weatherlink.com 1.10,2013-01-12 11:35:00,
2013-01-12 03:51:00,45.0,25.0,30.04,NW,323,0.0,4.0,45,0.00,,,0.00,weatherlink.com 1.10,2013-01-12 11:51:00,
2013-01-12 04:06:00,44.3,25.0,30.04,NNW,338,1.0,4.0,46,0.00,,,0.00,weatherlink.com 1.10,2013-01-12 12:06:00,
2013-01-12 04:21:00,43.8,25.0,30.04,NW,312,0.0,2.0,48,0.00,,,0.00,weatherlink.com 1.10,2013-01-12 12:21:00,
2013-01-12 04:36:00,42.5,25.0,30.04,NW,312,0.0,1.0,51,0.00,,,0.00,weatherlink.com 1.10,2013-01-12 12:36:00,
2013-01-12 04:51:00,41.4,25.0,30.05,North,354,0.0,0.0,53,0.00,,,0.00,weatherlink.com 1.10,2013-01-12 12:51:00,
2013-01-12 05:06:00,40.3,26.0,30.05,North,353,0.0,0.0,57,0.00,,,0.00,weatherlink.com 1.10,2013-01-12 13:06:00,
2013-01-12 05:21:00,39.5,26.0,30.06,North,353,0.0,1.0,60,0.00,,,0.00,weatherlink.com 1.10,2013-01-12 13:21:00,
2013-01-12 05:36:00,39.4,26.0,30.06,North,3,1.0,3.0,59,0.00,,,0.00,weatherlink.com 1.10,2013-01-12 13:36:00,
2013-01-12 05:51:00,39.1,26.0,30.07,North,7,0.0,2.0,59,0.00,,,0.00,weatherlink.com 1.10,2013-01-12 13:51:00,
2013-01-12 06:06:00,38.4,25.0,30.08,SW,236,1.0,1.0,60,0.00,,,0.00,weatherlink.com 1.10,2013-01-12 14:06:00,
2013-01-12 06:21:00,37.9,25.0,30.09,SW,235,0.0,1.0,61,0.00,,,0.00,weatherlink.com 1.10,2013-01-12 14:21:00,
2013-01-12 06:36:00,37.2,26.0,30.09,West,266,1.0,1.0,64,0.00,,,0.00,weatherlink.com 1.10,2013-01-12 14:36:00,
2013-01-12 06:51:00,36.5,26.0,30.09,SSW,202,0.0,2.0,66,0.00,,,0.00,weatherlink.com 1.10,2013-01-12 14:51:00,
2013-01-12 07:06:00,36.3,26.0,30.10,SSW,203,0.0,1.0,67,0.00,,,0.00,weatherlink.com 1.10,2013-01-12 15:06:00,
2013-01-12 07:21:00,36.4,27.0,30.11,WNW,285,0.0,0.0,68,0.00,,,0.00,weatherlink.com 1.10,2013-01-12 15:21:00,
2013-01-12 07:36:00,37.5,27.0,30.11,WNW,290,0.0,1.0,67,0.00,,,0.00,weatherlink.com 1.10,2013-01-12 15:36:00,
2013-01-12 07:51:00,39.2,28.0,30.12,WNW,290,0.0,1.0,64,0.00,,,0.00,weatherlink.com 1.10,2013-01-12 15:51:00,
2013-01-12 08:06:00,41.0,27.0,30.12,NW,314,1.0,2.0,59,0.00,,,0.00,weatherlink.com 1.10,2013-01-12 16:06:00,
2013-01-12 08:21:00,42.9,27.0,30.12,NW,315,1.0,3.0,54,0.00,,,0.00,weatherlink.com 1.10,2013-01-12 16:21:00,
2013-01-12 08:36:00,45.0,27.0,30.13,NNW,338,2.0,3.0,49,0.00,,,0.00,weatherlink.com 1.10,2013-01-12 16:36:00,
2013-01-12 08:51:00,46.3,26.0,30.13,NNW,340,1.0,4.0,45,0.00,,,0.00,weatherlink.com 1.10,2013-01-12 16:51:00,
2013-01-12 09:22:00,49.0,25.0,30.13,NE,52,4.0,4.0,39,0.00,,,0.00,weatherlink.com 1.10,2013-01-12 17:22:00,
2013-01-12 09:37:00,49.8,24.0,30.13,ENE,68,2.0,4.0,37,0.00,,,0.00,weatherlink.com 1.10,2013-01-12 17:37:00,
2013-01-12 09:52:00,50.8,21.0,30.13,ENE,65,4.0,5.0,31,0.00,,,0.00,weatherlink.com 1.10,2013-01-12 17:52:00,
2013-01-12 10:07:00,51.6,21.0,30.13,NNE,20,3.0,7.0,30,0.00,,,0.00,weatherlink.com 1.10,2013-01-12 18:07:00,
2013-01-12 10:22:00,53.1,21.0,30.13,ENE,69,2.0,6.0,28,0.00,,,0.00,weatherlink.com 1.10,2013-01-12 18:22:00,
2013-01-12 10:37:00,53.9,21.0,30.12,NE,37,1.0,5.0,28,0.00,,,0.00,weatherlink.com 1.10,2013-01-12 18:37:00,
2013-01-12 10:52:00,55.1,20.0,30.12,NE,48,1.0,5.0,25,0.00,,,0.00,weatherlink.com 1.10,2013-01-12 18:52:00,
2013-01-12 11:07:00,55.6,18.0,30.11,East,91,3.0,5.0,23,0.00,,,0.00,weatherlink.com 1.10,2013-01-12 19:07:00,
2013-01-12 11:22:00,56.4,13.0,30.10,SE,129,8.0,10.0,18,0.00,,,0.00,weatherlink.com 1.10,2013-01-12 19:22:00,
2013-01-12 11:37:00,56.5,14.0,30.09,East,82,7.0,11.0,19,0.00,,,0.00,weatherlink.com 1.10,2013-01-12 19:37:00,
2013-01-12 11:52:00,56.9,19.0,30.09,SSE,158,2.0,7.0,23,0.00,,,0.00,weatherlink.com 1.10,2013-01-12 19:52:00,
2013-01-12 12:07:00,57.0,22.0,30.08,SSW,198,5.0,10.0,26,0.00,,,0.00,weatherlink.com 1.10,2013-01-12 20:07:00,
2013-01-12 12:22:00,57.0,26.0,30.08,SSW,203,6.0,7.0,30,0.00,,,0.00,weatherlink.com 1.10,2013-01-12 20:22:00,
2013-01-12 12:37:00,57.0,27.0,30.07,SSE,162,7.0,8.0,32,0.00,,,0.00,weatherlink.com 1.10,2013-01-12 20:37:00,
2013-01-12 12:52:00,56.9,26.0,30.07,WSW,243,3.0,8.0,31,0.00,,,0.00,weatherlink.com 1.10,2013-01-12 20:52:00,
2013-01-12 13:07:00,57.2,28.0,30.06,SSW,193,2.0,8.0,33,0.00,,,0.00,weatherlink.com 1.10,2013-01-12 21:07:00,
2013-01-12 13:22:00,57.3,30.0,30.06,SW,215,7.0,9.0,35,0.00,,,0.00,weatherlink.com 1.10,2013-01-12 21:22:00,
2013-01-12 13:37:00,57.0,29.0,30.06,SW,227,6.0,6.0,34,0.00,,,0.00,weatherlink.com 1.10,2013-01-12 21:37:00,
2013-01-12 13:52:00,56.5,29.0,30.06,SSW,206,4.0,8.0,35,0.00,,,0.00,weatherlink.com 1.10,2013-01-12 21:52:00,
2013-01-12 14:07:00,56.9,31.0,30.06,WSW,240,4.0,8.0,37,0.00,,,0.00,weatherlink.com 1.10,2013-01-12 22:07:00,
2013-01-12 14:22:00,57.2,31.0,30.06,WSW,251,3.0,9.0,37,0.00,,,0.00,weatherlink.com 1.10,2013-01-12 22:22:00,
2013-01-12 14:37:00,57.0,32.0,30.06,SSE,155,2.0,8.0,39,0.00,,,0.00,weatherlink.com 1.10,2013-01-12 22:37:00,
2013-01-12 14:52:00,57.4,29.0,30.05,SW,227,2.0,7.0,34,0.00,,,0.00,weatherlink.com 1.10,2013-01-12 22:52:00,
2013-01-12 15:07:00,56.8,29.0,30.05,SW,231,2.0,8.0,35,0.00,,,0.00,weatherlink.com 1.10,2013-01-12 23:07:00,
2013-01-12 15:22:00,56.8,29.0,30.05,WSW,243,2.0,9.0,35,0.00,,,0.00,weatherlink.com 1.10,2013-01-12 23:22:00,
2013-01-12 15:37:00,56.2,30.0,30.05,SW,233,3.0,7.0,37,0.00,,,0.00,weatherlink.com 1.10,2013-01-12 23:37:00,
2013-01-12 15:52:00,55.7,31.0,30.05,SW,235,2.0,8.0,39,0.00,,,0.00,weatherlink.com 1.10,2013-01-12 23:52:00,
2013-01-12 16:07:00,55.8,31.0,30.06,SW,226,3.0,8.0,39,0.00,,,0.00,weatherlink.com 1.10,2013-01-13 00:07:00,
2013-01-12 16:22:00,55.0,32.0,30.06,WSW,238,3.0,10.0,42,0.00,,,0.00,weatherlink.com 1.10,2013-01-13 00:22:00,
2013-01-12 16:37:00,54.3,32.0,30.06,WSW,237,2.0,6.0,43,0.00,,,0.00,weatherlink.com 1.10,2013-01-13 00:37:00,
2013-01-12 16:52:00,53.1,32.0,30.06,WSW,250,5.0,7.0,45,0.00,,,0.00,weatherlink.com 1.10,2013-01-13 00:52:00,
2013-01-12 17:07:00,52.4,31.0,30.06,WSW,238,2.0,7.0,45,0.00,,,0.00,weatherlink.com 1.10,2013-01-13 01:07:00,
2013-01-12 17:22:00,51.7,33.0,30.06,West,269,1.0,5.0,49,0.00,,,0.00,weatherlink.com 1.10,2013-01-13 01:22:00,
2013-01-12 17:37:00,50.8,33.0,30.06,West,267,0.0,2.0,50,0.00,,,0.00,weatherlink.com 1.10,2013-01-13 01:37:00,
2013-01-12 17:52:00,50.4,32.0,30.06,WSW,243,0.0,2.0,50,0.00,,,0.00,weatherlink.com 1.10,2013-01-13 01:52:00,
2013-01-12 18:07:00,50.2,33.0,30.07,West,269,1.0,3.0,51,0.00,,,0.00,weatherlink.com 1.10,2013-01-13 02:07:00,
2013-01-12 18:22:00,49.5,32.0,30.07,WSW,257,0.0,1.0,51,0.00,,,0.00,weatherlink.com 1.10,2013-01-13 02:22:00,
2013-01-12 18:37:00,48.3,32.0,30.07,WSW,257,0.0,0.0,54,0.00,,,0.00,weatherlink.com 1.10,2013-01-13 02:37:00,
2013-01-12 19:07:00,46.3,33.0,30.07,WSW,258,0.0,0.0,60,0.00,,,0.00,weatherlink.com 1.10,2013-01-13 03:07:00,
2013-01-12 19:37:00,45.0,33.0,30.07,WSW,258,0.0,0.0,62,0.00,,,0.00,weatherlink.com 1.10,2013-01-13 03:37:00,
2013-01-12 19:52:00,44.6,33.0,30.07,WSW,258,0.0,0.0,64,0.00,,,0.00,weatherlink.com 1.10,2013-01-13 03:52:00,
2013-01-12 20:07:00,44.0,34.0,30.07,WSW,258,0.0,0.0,67,0.00,,,0.00,weatherlink.com 1.10,2013-01-13 04:07:00,
2013-01-12 20:22:00,43.6,33.0,30.07,WSW,258,0.0,0.0,67,0.00,,,0.00,weatherlink.com 1.10,2013-01-13 04:22:00,
2013-01-12 20:37:00,42.8,34.0,30.07,WSW,258,0.0,0.0,70,0.00,,,0.00,weatherlink.com 1.10,2013-01-13 04:37:00,
2013-01-12 20:52:00,42.6,34.0,30.07,WSW,258,0.0,0.0,71,0.00,,,0.00,weatherlink.com 1.10,2013-01-13 04:52:00,
2013-01-12 21:07:00,41.3,34.0,30.07,WSW,258,0.0,0.0,74,0.00,,,0.00,weatherlink.com 1.10,2013-01-13 05:07:00,
2013-01-12 21:22:00,40.9,34.0,30.07,WSW,258,0.0,0.0,75,0.00,,,0.00,weatherlink.com 1.10,2013-01-13 05:22:00,
2013-01-12 21:37:00,40.0,33.0,30.07,WSW,257,0.0,0.0,76,0.00,,,0.00,weatherlink.com 1.10,2013-01-13 05:37:00,
2013-01-12 21:52:00,40.3,33.0,30.07,WSW,257,0.0,0.0,76,0.00,,,0.00,weatherlink.com 1.10,2013-01-13 05:52:00,
2013-01-12 22:07:00,39.8,33.0,30.07,WSW,258,0.0,0.0,76,0.00,,,0.00,weatherlink.com 1.10,2013-01-13 06:07:00,
2013-01-12 22:22:00,39.4,33.0,30.07,WSW,258,0.0,0.0,78,0.00,,,0.00,weatherlink.com 1.10,2013-01-13 06:22:00,
2013-01-12 22:37:00,38.7,33.0,30.08,WSW,258,0.0,0.0,80,0.00,,,0.00,weatherlink.com 1.10,2013-01-13 06:37:00,
2013-01-12 22:52:00,38.3,33.0,30.08,WSW,258,0.0,0.0,81,0.00,,,0.00,weatherlink.com 1.10,2013-01-13 06:52:00,
2013-01-12 23:07:00,38.6,33.0,30.08,WSW,258,0.0,0.0,81,0.00,,,0.00,weatherlink.com 1.10,2013-01-13 07:07:00,
2013-01-12 23:22:00,38.5,33.0,30.08,WSW,258,0.0,0.0,80,0.00,,,0.00,weatherlink.com 1.10,2013-01-13 07:22:00,
2013-01-12 23:37:00,38.0,32.0,30.08,WSW,258,0.0,0.0,80,0.00,,,0.00,weatherlink.com 1.10,2013-01-13 07:37:00,
2013-01-12 23:52:00,38.3,33.0,30.08,WSW,258,0.0,0.0,81,0.00,,,0.00,weatherlink.com 1.10,2013-01-13 07:52:00,